CheckWX is a tool to help pilots better visualize weather data.  It is not intended as a substitute for an official pre-flight weather briefing.

13:08:57 UTC

GMMC METAR
Anfa Airport
Casablanca, Morocco
Current

1 hour ago

GMMC 181200Z 26006KT 6000 -RA BKN016TCU BKN100 12/10 Q1017
Observed
Feb-18 @ 12:00 UTC
Wind
  • 260° at 6 KTS
Visibility
6,003 meters
Flight Rules
MVFR
Conditions
Light Rain
Cloud Levels
  • Broken at 1,600' AGL
  • Broken at 10,000' AGL
Temperature
12°C / 54°F
Dewpoint
10°C / 50°F
Humidity
88%
Altimeter
30.03" Hg
Pressure
1016.92 hPa
Previous

2 hours ago

GMMC 181100Z 34010KT 6000 -RA BKN016TCU BKN100 13/10 Q1016
Observed
Feb-18 @ 11:00 UTC
Wind
  • 340° at 10 KTS
Visibility
6,003 meters
Flight Rules
MVFR
Conditions
Light Rain
Cloud Levels
  • Broken at 1,600' AGL
  • Broken at 10,000' AGL
Temperature
13°C / 55°F
Dewpoint
10°C / 50°F
Humidity
82%
Altimeter
30" Hg
Pressure
1015.92 hPa
Previous

3 hours ago

GMMC 181000Z 28025KT 6000 BKN016TCU OVC100 14/11 Q1016
Observed
Feb-18 @ 10:00 UTC
Wind
  • 280° at 25 KTS
Visibility
6,003 meters
Flight Rules
MVFR
Cloud Levels
  • Broken at 1,600' AGL
  • Overcast at 10,000' AGL
Temperature
14°C / 57°F
Dewpoint
11°C / 52°F
Humidity
82%
Altimeter
30" Hg
Pressure
1015.92 hPa